sensor_id;sensor_type;location;lat;lon;timestamp;temperature;humidity
66726;HTU21D;53638;51.062;5.804;2024-02-21T00:01:15;10.15;-6.00
66726;HTU21D;53638;51.062;5.804;2024-02-21T00:03:42;10.08;-6.00
66726;HTU21D;53638;51.062;5.804;2024-02-21T00:06:08;10.16;-6.00
66726;HTU21D;53638;51.062;5.804;2024-02-21T00:08:33;10.07;-6.00
66726;HTU21D;53638;51.062;5.804;2024-02-21T00:10:59;10.05;-6.00
66726;HTU21D;53638;51.062;5.804;2024-02-21T00:13:25;10.08;-6.00
66726;HTU21D;53638;51.062;5.804;2024-02-21T00:15:51;10.09;-6.00
66726;HTU21D;53638;51.062;5.804;2024-02-21T00:18:17;10.13;-6.00
66726;HTU21D;53638;51.062;5.804;2024-02-21T00:20:43;10.18;-6.00
66726;HTU21D;53638;51.062;5.804;2024-02-21T00:23:09;10.25;-6.00
66726;HTU21D;53638;51.062;5.804;2024-02-21T00:25:35;10.28;-6.00
66726;HTU21D;53638;51.062;5.804;2024-02-21T00:28:01;10.26;-6.00
66726;HTU21D;53638;51.062;5.804;2024-02-21T00:30:27;10.24;-6.00
66726;HTU21D;53638;51.062;5.804;2024-02-21T00:32:53;10.20;-6.00
66726;HTU21D;53638;51.062;5.804;2024-02-21T00:35:19;10.15;-6.00
66726;HTU21D;53638;51.062;5.804;2024-02-21T00:37:45;10.15;-6.00
66726;HTU21D;53638;51.062;5.804;2024-02-21T00:40:11;10.22;-6.00
66726;HTU21D;53638;51.062;5.804;2024-02-21T00:42:37;10.25;-6.00
66726;HTU21D;53638;51.062;5.804;2024-02-21T00:45:03;10.14;-6.00
66726;HTU21D;53638;51.062;5.804;2024-02-21T00:47:29;10.21;-6.00
66726;HTU21D;53638;51.062;5.804;2024-02-21T00:49:55;10.20;-6.00
66726;HTU21D;53638;51.062;5.804;2024-02-21T00:52:21;10.18;-6.00
66726;HTU21D;53638;51.062;5.804;2024-02-21T00:54:47;10.24;-6.00
66726;HTU21D;53638;51.062;5.804;2024-02-21T00:57:14;10.20;-6.00
66726;HTU21D;53638;51.062;5.804;2024-02-21T00:59:40;10.26;-6.00
66726;HTU21D;53638;51.062;5.804;2024-02-21T01:02:07;10.19;-6.00
66726;HTU21D;53638;51.062;5.804;2024-02-21T01:04:35;10.23;-6.00
66726;HTU21D;53638;51.062;5.804;2024-02-21T01:07:01;10.29;-6.00
66726;HTU21D;53638;51.062;5.804;2024-02-21T01:09:26;10.27;-6.00
66726;HTU21D;53638;51.062;5.804;2024-02-21T01:11:52;10.16;-6.00
66726;HTU21D;53638;51.062;5.804;2024-02-21T01:14:19;10.25;-6.00
66726;HTU21D;53638;51.062;5.804;2024-02-21T01:16:45;10.26;-6.00
66726;HTU21D;53638;51.062;5.804;2024-02-21T01:19:10;10.10;-6.00
66726;HTU21D;53638;51.062;5.804;2024-02-21T01:21:36;10.25;-6.00
66726;HTU21D;53638;51.062;5.804;2024-02-21T01:24:02;10.19;-6.00
66726;HTU21D;53638;51.062;5.804;2024-02-21T01:26:28;10.27;-6.00
66726;HTU21D;53638;51.062;5.804;2024-02-21T01:28:54;10.21;-6.00
66726;HTU21D;53638;51.062;5.804;2024-02-21T01:31:23;10.13;-6.00
66726;HTU21D;53638;51.062;5.804;2024-02-21T01:33:49;10.20;-6.00
66726;HTU21D;53638;51.062;5.804;2024-02-21T01:36:15;10.16;-6.00
66726;HTU21D;53638;51.062;5.804;2024-02-21T01:38:41;10.20;-6.00
66726;HTU21D;53638;51.062;5.804;2024-02-21T01:41:07;10.21;-6.00
66726;HTU21D;53638;51.062;5.804;2024-02-21T01:43:33;10.12;-6.00
66726;HTU21D;53638;51.062;5.804;2024-02-21T01:46:02;10.10;-6.00
66726;HTU21D;53638;51.062;5.804;2024-02-21T01:48:32;10.16;-6.00
66726;HTU21D;53638;51.062;5.804;2024-02-21T01:50:58;10.15;-6.00
66726;HTU21D;53638;51.062;5.804;2024-02-21T01:53:37;10.26;-6.00
66726;HTU21D;53638;51.062;5.804;2024-02-21T01:56:05;10.19;-6.00
66726;HTU21D;53638;51.062;5.804;2024-02-21T01:58:34;10.21;-6.00
66726;HTU21D;53638;51.062;5.804;2024-02-21T02:01:03;10.27;-6.00
66726;HTU21D;53638;51.062;5.804;2024-02-21T02:03:29;10.24;-6.00
66726;HTU21D;53638;51.062;5.804;2024-02-21T02:05:55;10.24;-6.00
66726;HTU21D;53638;51.062;5.804;2024-02-21T02:08:22;10.19;-6.00
66726;HTU21D;53638;51.062;5.804;2024-02-21T02:10:48;10.33;-6.00
66726;HTU21D;53638;51.062;5.804;2024-02-21T02:13:15;10.30;-6.00
66726;HTU21D;53638;51.062;5.804;2024-02-21T02:15:42;10.29;-6.00
66726;HTU21D;53638;51.062;5.804;2024-02-21T02:18:09;10.15;-6.00
66726;HTU21D;53638;51.062;5.804;2024-02-21T02:20:36;10.25;-6.00
66726;HTU21D;53638;51.062;5.804;2024-02-21T02:23:11;10.16;-6.00
66726;HTU21D;53638;51.062;5.804;2024-02-21T02:25:39;10.10;-6.00
66726;HTU21D;53638;51.062;5.804;2024-02-21T02:28:07;10.23;-6.00
66726;HTU21D;53638;51.062;5.804;2024-02-21T02:30:36;10.31;-6.00
66726;HTU21D;53638;51.062;5.804;2024-02-21T02:33:04;10.22;-6.00
66726;HTU21D;53638;51.062;5.804;2024-02-21T02:35:30;10.29;-6.00
66726;HTU21D;53638;51.062;5.804;2024-02-21T02:37:56;10.28;-6.00
66726;HTU21D;53638;51.062;5.804;2024-02-21T02:40:23;10.28;-6.00
66726;HTU21D;53638;51.062;5.804;2024-02-21T02:42:49;10.21;-6.00
66726;HTU21D;53638;51.062;5.804;2024-02-21T02:45:16;10.28;-6.00
66726;HTU21D;53638;51.062;5.804;2024-02-21T02:47:41;10.20;-6.00
66726;HTU21D;53638;51.062;5.804;2024-02-21T02:50:08;10.18;-6.00
66726;HTU21D;53638;51.062;5.804;2024-02-21T02:52:34;10.18;-6.00
66726;HTU21D;53638;51.062;5.804;2024-02-21T02:55:00;10.16;-6.00
66726;HTU21D;53638;51.062;5.804;2024-02-21T02:57:27;10.26;-6.00
66726;HTU21D;53638;51.062;5.804;2024-02-21T02:59:53;10.11;-6.00
66726;HTU21D;53638;51.062;5.804;2024-02-21T03:02:19;10.07;-6.00
66726;HTU21D;53638;51.062;5.804;2024-02-21T03:04:45;10.11;-6.00
66726;HTU21D;53638;51.062;5.804;2024-02-21T03:07:11;10.21;-6.00
66726;HTU21D;53638;51.062;5.804;2024-02-21T03:09:38;10.18;-6.00
66726;HTU21D;53638;51.062;5.804;2024-02-21T03:12:05;10.26;-6.00
66726;HTU21D;53638;51.062;5.804;2024-02-21T03:14:32;10.31;-6.00
66726;HTU21D;53638;51.062;5.804;2024-02-21T03:16:59;10.24;-6.00
66726;HTU21D;53638;51.062;5.804;2024-02-21T03:19:25;10.16;-6.00
66726;HTU21D;53638;51.062;5.804;2024-02-21T03:21:52;10.14;-6.00
66726;HTU21D;53638;51.062;5.804;2024-02-21T03:24:19;10.09;-6.00
66726;HTU21D;53638;51.062;5.804;2024-02-21T03:26:45;10.15;-6.00
66726;HTU21D;53638;51.062;5.804;2024-02-21T03:29:14;10.13;-6.00
66726;HTU21D;53638;51.062;5.804;2024-02-21T03:31:41;10.09;-6.00
66726;HTU21D;53638;51.062;5.804;2024-02-21T03:34:14;10.18;-6.00
66726;HTU21D;53638;51.062;5.804;2024-02-21T03:36:39;10.15;-6.00
66726;HTU21D;53638;51.062;5.804;2024-02-21T03:39:05;10.12;-6.00
66726;HTU21D;53638;51.062;5.804;2024-02-21T03:41:33;10.12;-6.00
66726;HTU21D;53638;51.062;5.804;2024-02-21T03:43:59;10.10;-6.00
66726;HTU21D;53638;51.062;5.804;2024-02-21T03:46:25;10.07;-6.00
66726;HTU21D;53638;51.062;5.804;2024-02-21T03:48:51;10.07;-6.00
66726;HTU21D;53638;51.062;5.804;2024-02-21T03:51:17;9.95;-6.00
66726;HTU21D;53638;51.062;5.804;2024-02-21T03:53:43;9.96;-6.00
66726;HTU21D;53638;51.062;5.804;2024-02-21T03:56:09;10.00;-6.00
66726;HTU21D;53638;51.062;5.804;2024-02-21T03:58:35;10.03;-6.00
66726;HTU21D;53638;51.062;5.804;2024-02-21T04:01:01;10.06;-6.00
66726;HTU21D;53638;51.062;5.804;2024-02-21T04:03:31;10.03;-6.00
66726;HTU21D;53638;51.062;5.804;2024-02-21T04:05:57;10.00;-6.00
66726;HTU21D;53638;51.062;5.804;2024-02-21T04:08:26;9.83;-6.00
66726;HTU21D;53638;51.062;5.804;2024-02-21T04:10:52;9.90;-6.00
66726;HTU21D;53638;51.062;5.804;2024-02-21T04:13:18;9.86;-6.00
66726;HTU21D;53638;51.062;5.804;2024-02-21T04:15:44;9.85;-6.00
66726;HTU21D;53638;51.062;5.804;2024-02-21T04:18:10;9.79;-6.00
66726;HTU21D;53638;51.062;5.804;2024-02-21T04:20:36;9.79;-6.00
66726;HTU21D;53638;51.062;5.804;2024-02-21T04:23:01;9.72;-6.00
66726;HTU21D;53638;51.062;5.804;2024-02-21T04:25:27;9.67;-6.00
66726;HTU21D;53638;51.062;5.804;2024-02-21T04:27:53;9.69;-6.00
66726;HTU21D;53638;51.062;5.804;2024-02-21T04:30:19;9.75;-6.00
66726;HTU21D;53638;51.062;5.804;2024-02-21T04:32:45;9.67;-6.00
66726;HTU21D;53638;51.062;5.804;2024-02-21T04:35:11;9.76;-6.00
66726;HTU21D;53638;51.062;5.804;2024-02-21T04:37:38;9.81;-6.00
66726;HTU21D;53638;51.062;5.804;2024-02-21T04:40:10;9.74;-6.00
66726;HTU21D;53638;51.062;5.804;2024-02-21T04:42:39;9.68;-6.00
66726;HTU21D;53638;51.062;5.804;2024-02-21T04:45:06;9.69;-6.00
66726;HTU21D;53638;51.062;5.804;2024-02-21T04:47:32;9.50;-6.00
66726;HTU21D;53638;51.062;5.804;2024-02-21T04:49:58;9.47;-6.00
66726;HTU21D;53638;51.062;5.804;2024-02-21T04:52:24;9.49;-6.00
66726;HTU21D;53638;51.062;5.804;2024-02-21T04:54:49;9.44;-6.00
66726;HTU21D;53638;51.062;5.804;2024-02-21T04:57:16;9.42;-6.00
66726;HTU21D;53638;51.062;5.804;2024-02-21T04:59:44;9.42;-6.00
66726;HTU21D;53638;51.062;5.804;2024-02-21T05:02:11;9.44;-6.00
66726;HTU21D;53638;51.062;5.804;2024-02-21T05:04:40;9.57;-6.00
66726;HTU21D;53638;51.062;5.804;2024-02-21T05:07:07;9.59;-6.00
66726;HTU21D;53638;51.062;5.804;2024-02-21T05:09:33;9.57;-6.00
66726;HTU21D;53638;51.062;5.804;2024-02-21T05:11:59;9.66;-6.00
66726;HTU21D;53638;51.062;5.804;2024-02-21T05:14:28;9.67;-6.00
66726;HTU21D;53638;51.062;5.804;2024-02-21T05:16:55;9.66;-6.00
66726;HTU21D;53638;51.062;5.804;2024-02-21T05:19:24;9.66;-6.00
66726;HTU21D;53638;51.062;5.804;2024-02-21T05:21:50;9.68;-6.00
66726;HTU21D;53638;51.062;5.804;2024-02-21T05:24:16;9.70;-6.00
66726;HTU21D;53638;51.062;5.804;2024-02-21T05:26:42;9.48;-6.00
66726;HTU21D;53638;51.062;5.804;2024-02-21T05:29:07;9.59;-6.00
66726;HTU21D;53638;51.062;5.804;2024-02-21T05:31:55;9.59;-6.00
66726;HTU21D;53638;51.062;5.804;2024-02-21T05:34:23;9.55;-6.00
66726;HTU21D;53638;51.062;5.804;2024-02-21T05:36:49;9.60;-6.00
66726;HTU21D;53638;51.062;5.804;2024-02-21T05:39:16;9.64;-6.00
66726;HTU21D;53638;51.062;5.804;2024-02-21T05:41:42;9.68;-6.00
66726;HTU21D;53638;51.062;5.804;2024-02-21T05:44:08;9.79;-6.00
66726;HTU21D;53638;51.062;5.804;2024-02-21T05:46:34;9.79;-6.00
66726;HTU21D;53638;51.062;5.804;2024-02-21T05:49:01;9.76;-6.00
66726;HTU21D;53638;51.062;5.804;2024-02-21T05:51:27;9.74;-6.00
66726;HTU21D;53638;51.062;5.804;2024-02-21T05:53:52;9.80;-6.00
66726;HTU21D;53638;51.062;5.804;2024-02-21T05:56:18;9.80;-6.00
66726;HTU21D;53638;51.062;5.804;2024-02-21T05:58:45;9.76;-6.00
66726;HTU21D;53638;51.062;5.804;2024-02-21T06:01:11;9.67;-6.00
66726;HTU21D;53638;51.062;5.804;2024-02-21T06:03:37;9.61;-6.00
66726;HTU21D;53638;51.062;5.804;2024-02-21T06:06:04;9.68;-6.00
66726;HTU21D;53638;51.062;5.804;2024-02-21T06:08:30;9.62;-6.00
66726;HTU21D;53638;51.062;5.804;2024-02-21T06:10:59;9.64;-6.00
66726;HTU21D;53638;51.062;5.804;2024-02-21T06:13:25;9.74;-6.00
66726;HTU21D;53638;51.062;5.804;2024-02-21T06:15:51;9.80;-6.00
66726;HTU21D;53638;51.062;5.804;2024-02-21T06:18:26;9.64;-6.00
66726;HTU21D;53638;51.062;5.804;2024-02-21T06:20:52;9.64;-6.00
66726;HTU21D;53638;51.062;5.804;2024-02-21T06:23:18;9.72;-6.00
66726;HTU21D;53638;51.062;5.804;2024-02-21T06:25:44;9.74;-6.00
66726;HTU21D;53638;51.062;5.804;2024-02-21T06:28:10;9.67;-6.00
66726;HTU21D;53638;51.062;5.804;2024-02-21T06:30:36;9.65;-6.00
66726;HTU21D;53638;51.062;5.804;2024-02-21T06:33:02;9.53;-6.00
66726;HTU21D;53638;51.062;5.804;2024-02-21T06:35:37;9.59;-6.00
66726;HTU21D;53638;51.062;5.804;2024-02-21T06:38:06;9.60;-6.00
66726;HTU21D;53638;51.062;5.804;2024-02-21T06:40:32;9.46;-6.00
66726;HTU21D;53638;51.062;5.804;2024-02-21T06:43:04;9.52;-6.00
66726;HTU21D;53638;51.062;5.804;2024-02-21T06:45:30;9.45;-6.00
66726;HTU21D;53638;51.062;5.804;2024-02-21T06:47:56;9.42;-6.00
66726;HTU21D;53638;51.062;5.804;2024-02-21T06:50:22;9.47;-6.00
66726;HTU21D;53638;51.062;5.804;2024-02-21T06:52:48;9.52;-6.00
66726;HTU21D;53638;51.062;5.804;2024-02-21T06:55:14;9.41;-6.00
66726;HTU21D;53638;51.062;5.804;2024-02-21T06:57:39;9.50;-6.00
66726;HTU21D;53638;51.062;5.804;2024-02-21T07:00:06;9.55;-6.00
66726;HTU21D;53638;51.062;5.804;2024-02-21T07:02:34;9.57;-6.00
66726;HTU21D;53638;51.062;5.804;2024-02-21T07:05:00;9.64;-6.00
66726;HTU21D;53638;51.062;5.804;2024-02-21T07:07:26;9.65;-6.00
66726;HTU21D;53638;51.062;5.804;2024-02-21T07:09:51;9.66;-6.00
66726;HTU21D;53638;51.062;5.804;2024-02-21T07:12:19;9.57;-6.00
66726;HTU21D;53638;51.062;5.804;2024-02-21T07:14:45;9.55;-6.00
66726;HTU21D;53638;51.062;5.804;2024-02-21T07:17:11;9.60;-6.00
66726;HTU21D;53638;51.062;5.804;2024-02-21T07:19:36;9.62;-6.00
66726;HTU21D;53638;51.062;5.804;2024-02-21T07:22:02;9.70;-6.00
66726;HTU21D;53638;51.062;5.804;2024-02-21T07:24:28;9.56;-6.00
66726;HTU21D;53638;51.062;5.804;2024-02-21T07:26:54;9.51;-6.00
66726;HTU21D;53638;51.062;5.804;2024-02-21T07:29:21;9.57;-6.00
66726;HTU21D;53638;51.062;5.804;2024-02-21T07:31:48;9.55;-6.00
66726;HTU21D;53638;51.062;5.804;2024-02-21T07:34:14;9.57;-6.00
66726;HTU21D;53638;51.062;5.804;2024-02-21T07:36:40;9.59;-6.00
66726;HTU21D;53638;51.062;5.804;2024-02-21T07:39:08;9.54;-6.00
66726;HTU21D;53638;51.062;5.804;2024-02-21T07:41:34;9.46;-6.00
66726;HTU21D;53638;51.062;5.804;2024-02-21T07:44:00;9.41;-6.00
66726;HTU21D;53638;51.062;5.804;2024-02-21T07:46:26;9.51;-6.00
66726;HTU21D;53638;51.062;5.804;2024-02-21T07:48:52;9.49;-6.00
66726;HTU21D;53638;51.062;5.804;2024-02-21T07:51:18;9.59;-6.00
66726;HTU21D;53638;51.062;5.804;2024-02-21T07:53:44;9.54;-6.00
66726;HTU21D;53638;51.062;5.804;2024-02-21T07:56:11;9.64;-6.00
66726;HTU21D;53638;51.062;5.804;2024-02-21T07:58:37;9.56;-6.00
66726;HTU21D;53638;51.062;5.804;2024-02-21T08:01:03;9.55;-6.00
66726;HTU21D;53638;51.062;5.804;2024-02-21T08:03:29;9.61;-6.00
66726;HTU21D;53638;51.062;5.804;2024-02-21T08:05:55;9.52;-6.00
66726;HTU21D;53638;51.062;5.804;2024-02-21T08:11:08;9.74;-6.00
66726;HTU21D;53638;51.062;5.804;2024-02-21T08:13:34;9.76;-6.00
66726;HTU21D;53638;51.062;5.804;2024-02-21T08:16:00;9.82;-6.00
66726;HTU21D;53638;51.062;5.804;2024-02-21T08:18:25;9.94;-6.00
66726;HTU21D;53638;51.062;5.804;2024-02-21T08:20:51;9.95;-6.00
66726;HTU21D;53638;51.062;5.804;2024-02-21T08:23:18;9.97;-6.00
66726;HTU21D;53638;51.062;5.804;2024-02-21T08:25:44;9.92;-6.00
66726;HTU21D;53638;51.062;5.804;2024-02-21T08:28:10;10.04;-6.00
66726;HTU21D;53638;51.062;5.804;2024-02-21T08:30:36;10.01;-6.00
66726;HTU21D;53638;51.062;5.804;2024-02-21T08:33:02;10.08;-6.00
66726;HTU21D;53638;51.062;5.804;2024-02-21T08:35:29;10.04;-6.00
66726;HTU21D;53638;51.062;5.804;2024-02-21T08:37:55;10.09;-6.00
66726;HTU21D;53638;51.062;5.804;2024-02-21T08:40:21;10.06;-6.00
66726;HTU21D;53638;51.062;5.804;2024-02-21T08:42:47;10.06;-6.00
66726;HTU21D;53638;51.062;5.804;2024-02-21T08:45:13;10.04;-6.00
66726;HTU21D;53638;51.062;5.804;2024-02-21T08:47:39;10.14;-6.00
66726;HTU21D;53638;51.062;5.804;2024-02-21T08:50:07;10.26;-6.00
66726;HTU21D;53638;51.062;5.804;2024-02-21T08:52:33;10.28;-6.00
66726;HTU21D;53638;51.062;5.804;2024-02-21T08:54:59;10.27;-6.00
66726;HTU21D;53638;51.062;5.804;2024-02-21T08:57:24;10.13;-6.00
66726;HTU21D;53638;51.062;5.804;2024-02-21T08:59:50;10.08;-6.00
66726;HTU21D;53638;51.062;5.804;2024-02-21T09:02:16;10.31;-6.00
66726;HTU21D;53638;51.062;5.804;2024-02-21T09:04:43;10.37;-6.00
66726;HTU21D;53638;51.062;5.804;2024-02-21T09:07:10;10.54;-6.00
66726;HTU21D;53638;51.062;5.804;2024-02-21T09:09:37;10.57;-6.00
66726;HTU21D;53638;51.062;5.804;2024-02-21T09:12:07;10.63;-6.00
66726;HTU21D;53638;51.062;5.804;2024-02-21T09:14:33;10.68;-6.00
66726;HTU21D;53638;51.062;5.804;2024-02-21T09:16:59;10.77;-6.00
66726;HTU21D;53638;51.062;5.804;2024-02-21T09:19:25;10.78;-6.00
66726;HTU21D;53638;51.062;5.804;2024-02-21T09:21:51;10.87;-6.00
66726;HTU21D;53638;51.062;5.804;2024-02-21T09:24:17;10.74;-6.00
66726;HTU21D;53638;51.062;5.804;2024-02-21T09:26:43;10.85;-6.00
66726;HTU21D;53638;51.062;5.804;2024-02-21T09:29:09;10.81;-6.00
66726;HTU21D;53638;51.062;5.804;2024-02-21T09:31:35;10.86;-6.00
66726;HTU21D;53638;51.062;5.804;2024-02-21T09:34:01;10.73;-6.00
66726;HTU21D;53638;51.062;5.804;2024-02-21T09:36:27;10.70;-6.00
66726;HTU21D;53638;51.062;5.804;2024-02-21T09:38:54;10.43;-6.00
66726;HTU21D;53638;51.062;5.804;2024-02-21T09:41:28;10.53;-6.00
66726;HTU21D;53638;51.062;5.804;2024-02-21T09:43:54;10.51;-6.00
66726;HTU21D;53638;51.062;5.804;2024-02-21T09:46:30;10.60;-6.00
66726;HTU21D;53638;51.062;5.804;2024-02-21T09:49:13;10.66;-6.00
66726;HTU21D;53638;51.062;5.804;2024-02-21T09:51:45;10.79;-6.00
66726;HTU21D;53638;51.062;5.804;2024-02-21T09:54:12;10.85;-6.00
66726;HTU21D;53638;51.062;5.804;2024-02-21T09:56:38;10.83;-6.00
66726;HTU21D;53638;51.062;5.804;2024-02-21T09:59:05;10.84;-6.00
66726;HTU21D;53638;51.062;5.804;2024-02-21T10:01:32;11.02;-6.00
66726;HTU21D;53638;51.062;5.804;2024-02-21T10:03:58;11.08;-6.00
66726;HTU21D;53638;51.062;5.804;2024-02-21T10:06:24;11.11;-6.00
66726;HTU21D;53638;51.062;5.804;2024-02-21T10:08:53;11.14;-6.00
66726;HTU21D;53638;51.062;5.804;2024-02-21T10:11:24;11.24;-6.00
66726;HTU21D;53638;51.062;5.804;2024-02-21T10:13:50;11.27;-6.00
66726;HTU21D;53638;51.062;5.804;2024-02-21T10:16:16;11.26;-6.00
66726;HTU21D;53638;51.062;5.804;2024-02-21T10:18:41;11.23;-6.00
66726;HTU21D;53638;51.062;5.804;2024-02-21T10:21:08;11.29;-6.00
66726;HTU21D;53638;51.062;5.804;2024-02-21T10:23:42;11.30;-6.00
66726;HTU21D;53638;51.062;5.804;2024-02-21T10:26:08;11.41;-6.00
66726;HTU21D;53638;51.062;5.804;2024-02-21T10:28:34;11.40;-6.00
66726;HTU21D;53638;51.062;5.804;2024-02-21T10:31:00;11.47;-6.00
66726;HTU21D;53638;51.062;5.804;2024-02-21T10:33:26;11.62;-6.00
66726;HTU21D;53638;51.062;5.804;2024-02-21T10:35:53;11.76;-6.00
66726;HTU21D;53638;51.062;5.804;2024-02-21T10:38:19;11.84;-6.00
66726;HTU21D;53638;51.062;5.804;2024-02-21T10:40:46;11.89;-6.00
66726;HTU21D;53638;51.062;5.804;2024-02-21T10:43:14;11.92;-6.00
66726;HTU21D;53638;51.062;5.804;2024-02-21T10:45:41;11.91;-6.00
66726;HTU21D;53638;51.062;5.804;2024-02-21T10:48:13;12.05;-6.00
66726;HTU21D;53638;51.062;5.804;2024-02-21T10:50:58;11.74;-6.00
66726;HTU21D;53638;51.062;5.804;2024-02-21T10:53:39;11.64;-6.00
66726;HTU21D;53638;51.062;5.804;2024-02-21T10:56:21;11.77;-6.00
66726;HTU21D;53638;51.062;5.804;2024-02-21T10:58:48;12.00;-6.00
66726;HTU21D;53638;51.062;5.804;2024-02-21T11:01:16;12.13;-6.00
66726;HTU21D;53638;51.062;5.804;2024-02-21T11:03:45;12.13;-6.00
66726;HTU21D;53638;51.062;5.804;2024-02-21T11:06:13;12.10;-6.00
66726;HTU21D;53638;51.062;5.804;2024-02-21T11:08:40;12.17;-6.00
66726;HTU21D;53638;51.062;5.804;2024-02-21T11:11:06;12.38;-6.00
66726;HTU21D;53638;51.062;5.804;2024-02-21T11:13:35;12.47;-6.00
66726;HTU21D;53638;51.062;5.804;2024-02-21T11:16:08;12.31;-6.00
66726;HTU21D;53638;51.062;5.804;2024-02-21T11:18:36;12.40;-6.00
66726;HTU21D;53638;51.062;5.804;2024-02-21T11:21:02;12.37;-6.00
66726;HTU21D;53638;51.062;5.804;2024-02-21T11:23:32;12.34;-6.00
66726;HTU21D;53638;51.062;5.804;2024-02-21T11:28:32;12.57;-6.00
66726;HTU21D;53638;51.062;5.804;2024-02-21T11:31:11;12.53;-6.00
66726;HTU21D;53638;51.062;5.804;2024-02-21T11:33:40;12.74;-6.00
66726;HTU21D;53638;51.062;5.804;2024-02-21T11:36:08;12.79;-6.00
66726;HTU21D;53638;51.062;5.804;2024-02-21T11:38:34;13.14;-6.00
66726;HTU21D;53638;51.062;5.804;2024-02-21T11:41:00;13.34;-6.00
66726;HTU21D;53638;51.062;5.804;2024-02-21T11:43:26;13.43;-6.00
66726;HTU21D;53638;51.062;5.804;2024-02-21T11:46:04;13.53;-6.00
66726;HTU21D;53638;51.062;5.804;2024-02-21T11:48:32;13.53;-6.00
66726;HTU21D;53638;51.062;5.804;2024-02-21T11:50:58;13.55;-6.00
66726;HTU21D;53638;51.062;5.804;2024-02-21T11:53:24;13.61;-6.00
66726;HTU21D;53638;51.062;5.804;2024-02-21T11:55:50;13.59;-6.00
66726;HTU21D;53638;51.062;5.804;2024-02-21T11:58:16;13.54;-6.00
66726;HTU21D;53638;51.062;5.804;2024-02-21T12:00:42;13.53;-6.00
66726;HTU21D;53638;51.062;5.804;2024-02-21T12:03:08;13.59;-6.00
66726;HTU21D;53638;51.062;5.804;2024-02-21T12:05:34;13.69;-6.00
66726;HTU21D;53638;51.062;5.804;2024-02-21T12:08:01;13.88;-6.00
66726;HTU21D;53638;51.062;5.804;2024-02-21T12:10:27;13.92;-6.00
66726;HTU21D;53638;51.062;5.804;2024-02-21T12:12:53;13.93;-6.00
66726;HTU21D;53638;51.062;5.804;2024-02-21T12:15:23;14.08;-6.00
66726;HTU21D;53638;51.062;5.804;2024-02-21T12:17:49;14.42;-6.00
66726;HTU21D;53638;51.062;5.804;2024-02-21T12:20:17;14.87;-6.00
66726;HTU21D;53638;51.062;5.804;2024-02-21T12:22:43;15.14;-6.00
66726;HTU21D;53638;51.062;5.804;2024-02-21T12:25:16;15.28;-6.00
66726;HTU21D;53638;51.062;5.804;2024-02-21T12:27:46;15.43;-6.00
66726;HTU21D;53638;51.062;5.804;2024-02-21T12:30:12;15.55;-6.00
66726;HTU21D;53638;51.062;5.804;2024-02-21T12:32:38;15.57;-6.00
66726;HTU21D;53638;51.062;5.804;2024-02-21T12:35:04;15.73;-6.00
66726;HTU21D;53638;51.062;5.804;2024-02-21T12:37:30;16.11;-6.00
66726;HTU21D;53638;51.062;5.804;2024-02-21T12:39:56;16.57;-6.00
66726;HTU21D;53638;51.062;5.804;2024-02-21T12:42:25;16.79;-6.00
66726;HTU21D;53638;51.062;5.804;2024-02-21T12:44:52;16.24;-6.00
66726;HTU21D;53638;51.062;5.804;2024-02-21T12:47:18;15.71;-6.00
66726;HTU21D;53638;51.062;5.804;2024-02-21T12:49:46;14.97;-6.00
66726;HTU21D;53638;51.062;5.804;2024-02-21T12:52:12;14.34;-6.00
66726;HTU21D;53638;51.062;5.804;2024-02-21T12:54:39;13.54;-6.00
66726;HTU21D;53638;51.062;5.804;2024-02-21T12:57:05;13.20;-6.00
66726;HTU21D;53638;51.062;5.804;2024-02-21T12:59:31;13.09;-6.00
66726;HTU21D;53638;51.062;5.804;2024-02-21T13:01:57;12.86;-6.00
66726;HTU21D;53638;51.062;5.804;2024-02-21T13:04:23;12.61;-6.00
66726;HTU21D;53638;51.062;5.804;2024-02-21T13:06:49;12.40;-6.00
66726;HTU21D;53638;51.062;5.804;2024-02-21T13:09:15;12.40;-6.00
66726;HTU21D;53638;51.062;5.804;2024-02-21T13:11:42;12.26;-6.00
66726;HTU21D;53638;51.062;5.804;2024-02-21T13:14:10;12.22;-6.00
66726;HTU21D;53638;51.062;5.804;2024-02-21T13:16:36;12.15;-6.00
66726;HTU21D;53638;51.062;5.804;2024-02-21T13:19:06;12.19;-6.00
66726;HTU21D;53638;51.062;5.804;2024-02-21T13:21:32;12.06;-6.00
66726;HTU21D;53638;51.062;5.804;2024-02-21T13:23:58;11.96;-6.00
66726;HTU21D;53638;51.062;5.804;2024-02-21T13:26:24;12.02;-6.00
66726;HTU21D;53638;51.062;5.804;2024-02-21T13:28:50;11.96;-6.00
66726;HTU21D;53638;51.062;5.804;2024-02-21T13:31:16;12.00;-6.00
66726;HTU21D;53638;51.062;5.804;2024-02-21T13:33:42;12.03;-6.00
66726;HTU21D;53638;51.062;5.804;2024-02-21T13:36:10;12.20;-6.00
66726;HTU21D;53638;51.062;5.804;2024-02-21T13:38:36;12.29;-6.00
66726;HTU21D;53638;51.062;5.804;2024-02-21T13:41:02;12.31;-6.00
66726;HTU21D;53638;51.062;5.804;2024-02-21T13:43:28;12.45;-6.00
66726;HTU21D;53638;51.062;5.804;2024-02-21T13:45:57;12.37;-6.00
66726;HTU21D;53638;51.062;5.804;2024-02-21T13:48:24;12.45;-6.00
66726;HTU21D;53638;51.062;5.804;2024-02-21T13:50:50;12.57;-6.00
66726;HTU21D;53638;51.062;5.804;2024-02-21T13:53:16;12.81;-6.00
66726;HTU21D;53638;51.062;5.804;2024-02-21T13:55:44;12.97;-6.00
66726;HTU21D;53638;51.062;5.804;2024-02-21T13:58:11;12.87;-6.00
66726;HTU21D;53638;51.062;5.804;2024-02-21T14:00:37;12.91;-6.00
66726;HTU21D;53638;51.062;5.804;2024-02-21T14:03:03;12.88;-6.00
66726;HTU21D;53638;51.062;5.804;2024-02-21T14:05:29;12.74;-6.00
66726;HTU21D;53638;51.062;5.804;2024-02-21T14:07:55;12.71;-6.00
66726;HTU21D;53638;51.062;5.804;2024-02-21T14:10:21;12.67;-6.00
66726;HTU21D;53638;51.062;5.804;2024-02-21T14:12:47;12.69;-6.00
66726;HTU21D;53638;51.062;5.804;2024-02-21T14:15:14;12.62;-6.00
66726;HTU21D;53638;51.062;5.804;2024-02-21T14:17:40;12.58;-6.00
66726;HTU21D;53638;51.062;5.804;2024-02-21T14:20:08;12.58;-6.00
66726;HTU21D;53638;51.062;5.804;2024-02-21T14:22:34;12.47;-6.00
66726;HTU21D;53638;51.062;5.804;2024-02-21T14:25:00;12.19;-6.00
66726;HTU21D;53638;51.062;5.804;2024-02-21T14:27:26;12.05;-6.00
66726;HTU21D;53638;51.062;5.804;2024-02-21T14:29:52;12.20;-6.00
66726;HTU21D;53638;51.062;5.804;2024-02-21T14:32:19;12.36;-6.00
66726;HTU21D;53638;51.062;5.804;2024-02-21T14:34:45;12.46;-6.00
66726;HTU21D;53638;51.062;5.804;2024-02-21T14:37:11;12.46;-6.00
66726;HTU21D;53638;51.062;5.804;2024-02-21T14:39:37;12.42;-6.00
66726;HTU21D;53638;51.062;5.804;2024-02-21T14:42:03;12.34;-6.00
66726;HTU21D;53638;51.062;5.804;2024-02-21T14:44:29;12.38;-6.00
66726;HTU21D;53638;51.062;5.804;2024-02-21T14:46:55;12.19;-6.00
66726;HTU21D;53638;51.062;5.804;2024-02-21T14:49:21;12.12;-6.00
66726;HTU21D;53638;51.062;5.804;2024-02-21T14:51:47;12.05;-6.00
66726;HTU21D;53638;51.062;5.804;2024-02-21T14:54:13;11.99;-6.00
66726;HTU21D;53638;51.062;5.804;2024-02-21T14:56:39;11.82;-6.00
66726;HTU21D;53638;51.062;5.804;2024-02-21T14:59:05;11.69;-6.00
66726;HTU21D;53638;51.062;5.804;2024-02-21T15:01:36;11.57;-6.00
66726;HTU21D;53638;51.062;5.804;2024-02-21T15:04:04;11.46;-6.00
66726;HTU21D;53638;51.062;5.804;2024-02-21T15:06:30;11.12;-6.00
66726;HTU21D;53638;51.062;5.804;2024-02-21T15:08:57;11.02;-6.00
66726;HTU21D;53638;51.062;5.804;2024-02-21T15:11:24;10.94;-6.00
66726;HTU21D;53638;51.062;5.804;2024-02-21T15:13:50;10.72;-6.00
66726;HTU21D;53638;51.062;5.804;2024-02-21T15:16:16;10.77;-6.00
66726;HTU21D;53638;51.062;5.804;2024-02-21T15:18:42;10.58;-6.00
66726;HTU21D;53638;51.062;5.804;2024-02-21T15:21:08;10.46;-6.00
66726;HTU21D;53638;51.062;5.804;2024-02-21T15:23:39;10.40;-6.00